createdAt,value
2023-07-09T00:02:21.049Z,25.94
2023-07-09T00:04:51.703Z,26.01
2023-07-09T00:07:26.459Z,26.13
2023-07-09T00:09:58.523Z,26.16
2023-07-09T00:12:29.542Z,26.34
2023-07-09T00:15:01.578Z,26.46
2023-07-09T00:17:35.446Z,26.61
2023-07-09T00:20:07.602Z,26.59
2023-07-09T00:22:38.089Z,26.94
2023-07-09T00:25:09.196Z,26.93
2023-07-09T00:27:39.981Z,26.76
2023-07-09T00:30:18.186Z,26.84
2023-07-09T00:32:48.613Z,26.92
2023-07-09T00:35:19.331Z,27.05
2023-07-09T00:37:50.296Z,27.15
2023-07-09T00:40:22.847Z,27.18
2023-07-09T00:42:55.894Z,26.85
2023-07-09T00:45:30.022Z,27.16
2023-07-09T00:48:02.810Z,27.11
2023-07-09T00:50:47.397Z,27.24
2023-07-09T00:53:22.494Z,27.24
2023-07-09T00:55:58.593Z,27.28
2023-07-09T00:58:30.865Z,27.38
2023-07-09T01:01:07.597Z,27.46
2023-07-09T01:03:42.829Z,27.45
2023-07-09T01:06:14.333Z,27.42
2023-07-09T01:08:44.933Z,27.57
2023-07-09T01:11:24.102Z,27.57
2023-07-09T01:13:58.304Z,27.66
2023-07-09T01:16:34.328Z,27.76
2023-07-09T01:19:06.292Z,27.80
2023-07-09T01:21:38.427Z,27.78
2023-07-09T01:24:18.082Z,27.80
2023-07-09T01:26:49.216Z,28.01
2023-07-09T01:29:19.743Z,27.98
2023-07-09T01:31:50.258Z,27.95
2023-07-09T01:34:23.981Z,27.92
2023-07-09T01:36:56.391Z,27.98
2023-07-09T01:39:28.038Z,27.85
2023-07-09T01:41:58.822Z,27.92
2023-07-09T01:44:32.077Z,27.80
2023-07-09T01:47:06.294Z,27.91
2023-07-09T01:49:36.752Z,28.00
2023-07-09T01:52:10.382Z,28.00
2023-07-09T01:54:41.214Z,27.95
2023-07-09T01:57:21.362Z,28.03
2023-07-09T01:59:51.827Z,28.05
2023-07-09T02:02:22.468Z,28.02
2023-07-09T02:04:54.748Z,28.06
2023-07-09T02:07:28.124Z,28.23
2023-07-09T02:09:58.602Z,28.33
2023-07-09T02:12:29.203Z,28.35
2023-07-09T02:14:59.718Z,28.40
2023-07-09T02:17:30.230Z,28.48
2023-07-09T02:20:00.750Z,28.47
2023-07-09T02:22:32.857Z,28.38
2023-07-09T02:25:03.678Z,28.39
2023-07-09T02:27:34.190Z,28.45
2023-07-09T02:30:04.696Z,28.48
2023-07-09T02:32:35.298Z,28.60
2023-07-09T02:35:06.456Z,28.52
2023-07-09T02:37:38.651Z,28.53
2023-07-09T02:40:11.805Z,28.42
2023-07-09T02:42:42.398Z,28.50
2023-07-09T02:45:14.003Z,28.67
2023-07-09T02:47:44.495Z,28.74
2023-07-09T02:50:15.109Z,28.80
2023-07-09T02:52:47.337Z,28.77
2023-07-09T02:55:17.854Z,28.85
2023-07-09T02:57:48.363Z,28.82
2023-07-09T03:00:19.766Z,28.79
2023-07-09T03:02:50.378Z,28.51
2023-07-09T03:05:20.926Z,28.79
2023-07-09T03:07:52.985Z,28.48
2023-07-09T03:10:23.453Z,28.84
2023-07-09T03:12:54.308Z,28.76
2023-07-09T03:15:24.854Z,28.80
2023-07-09T03:17:55.306Z,28.81
2023-07-09T03:20:26.083Z,28.73
2023-07-09T03:22:58.451Z,28.71
2023-07-09T03:25:29.217Z,28.70
2023-07-09T03:27:59.804Z,28.64
2023-07-09T03:30:30.573Z,28.73
2023-07-09T03:33:02.190Z,28.77
2023-07-09T03:35:32.844Z,29.01
2023-07-09T03:38:04.989Z,29.05
2023-07-09T03:40:35.700Z,29.04
2023-07-09T03:43:08.929Z,29.04
2023-07-09T03:45:40.293Z,29.09
2023-07-09T03:48:12.253Z,29.17
2023-07-09T03:50:43.027Z,29.09
2023-07-09T03:53:16.516Z,29.14
2023-07-09T03:55:49.312Z,29.02
2023-07-09T03:58:19.701Z,29.11
2023-07-09T04:00:50.184Z,28.86
2023-07-09T04:03:20.800Z,29.15
2023-07-09T04:05:52.122Z,29.13
2023-07-09T04:08:24.208Z,28.96
2023-07-09T04:10:58.384Z,28.88
2023-07-09T04:13:32.056Z,29.06
2023-07-09T04:16:03.209Z,29.03
2023-07-09T04:18:34.233Z,29.07
2023-07-09T04:21:04.748Z,29.14
2023-07-09T04:23:36.953Z,29.09
2023-07-09T04:26:11.025Z,29.06
2023-07-09T04:28:41.662Z,28.98
2023-07-09T04:31:12.074Z,28.98
2023-07-09T04:33:42.608Z,28.94
2023-07-09T04:36:14.819Z,28.94
2023-07-09T04:38:46.979Z,28.71
2023-07-09T04:41:17.764Z,28.82
2023-07-09T04:43:48.189Z,28.79
2023-07-09T04:46:18.776Z,28.72
2023-07-09T04:48:49.584Z,28.78
2023-07-09T04:51:20.065Z,28.85
2023-07-09T04:53:53.503Z,28.76
2023-07-09T04:56:24.660Z,28.71
2023-07-09T04:58:55.216Z,28.78
2023-07-09T05:01:25.827Z,28.79
2023-07-09T05:03:59.554Z,28.80
2023-07-09T05:06:30.207Z,28.87
2023-07-09T05:09:02.528Z,28.77
2023-07-09T05:11:33.281Z,28.73
2023-07-09T05:14:05.878Z,28.60
2023-07-09T05:16:36.454Z,28.43
2023-07-09T05:19:07.201Z,28.35
2023-07-09T05:21:37.772Z,28.34
2023-07-09T05:24:10.687Z,28.35
2023-07-09T05:26:41.324Z,28.32
2023-07-09T05:29:11.779Z,28.44
2023-07-09T05:31:43.855Z,28.48
2023-07-09T05:34:16.750Z,28.59
2023-07-09T05:36:48.791Z,28.71
2023-07-09T05:39:21.997Z,28.72
2023-07-09T05:41:52.723Z,28.81
2023-07-09T05:44:23.143Z,29.02
2023-07-09T05:46:53.656Z,29.16
2023-07-09T05:49:24.325Z,29.12
2023-07-09T05:51:54.747Z,29.31
2023-07-09T05:54:27.146Z,29.42
2023-07-09T05:56:57.906Z,29.52
2023-07-09T05:59:28.452Z,29.57
2023-07-09T06:01:59.318Z,29.73
2023-07-09T06:04:30.021Z,29.72
2023-07-09T06:07:00.577Z,29.80
2023-07-09T06:09:32.784Z,29.77
2023-07-09T06:12:04.490Z,29.66
2023-07-09T06:14:35.746Z,29.64
2023-07-09T06:17:06.806Z,29.62
2023-07-09T06:19:37.377Z,29.61
2023-07-09T06:22:08.817Z,29.54
2023-07-09T06:24:40.836Z,29.51
2023-07-09T06:27:11.309Z,29.64
2023-07-09T06:29:41.818Z,29.65
2023-07-09T06:32:12.350Z,29.54
2023-07-09T06:34:43.233Z,29.40
2023-07-09T06:37:13.761Z,29.08
2023-07-09T06:39:47.052Z,29.10
2023-07-09T06:42:17.750Z,29.13
2023-07-09T06:44:48.664Z,29.12
2023-07-09T06:47:19.510Z,29.22
2023-07-09T06:49:50.359Z,29.24
2023-07-09T06:52:20.904Z,29.07
2023-07-09T06:54:53.092Z,29.06
2023-07-09T06:57:23.830Z,28.90
2023-07-09T06:59:54.299Z,28.87
2023-07-09T07:02:25.143Z,28.87
2023-07-09T07:04:55.736Z,28.91
2023-07-09T07:07:26.289Z,28.89
2023-07-09T07:10:05.572Z,28.80
2023-07-09T07:13:05.897Z,28.21
2023-07-09T07:15:37.273Z,28.56
2023-07-09T07:18:08.376Z,28.54
2023-07-09T07:20:38.917Z,28.55
2023-07-09T07:23:09.612Z,28.27
2023-07-09T07:25:42.106Z,28.33
2023-07-09T07:28:12.848Z,28.37
2023-07-09T07:30:43.674Z,28.36
2023-07-09T07:33:14.659Z,28.26
2023-07-09T07:36:06.324Z,28.24
2023-07-09T07:38:36.521Z,28.21
2023-07-09T07:41:08.623Z,28.18
2023-07-09T07:43:39.433Z,28.16
2023-07-09T07:46:11.040Z,28.19
2023-07-09T07:48:41.659Z,28.09
2023-07-09T07:51:12.877Z,28.00
2023-07-09T07:53:43.332Z,27.87
2023-07-09T07:56:15.977Z,27.86
2023-07-09T07:58:46.708Z,27.82
2023-07-09T08:01:17.181Z,27.79
2023-07-09T08:03:47.565Z,27.72
2023-07-09T08:06:18.308Z,27.52
2023-07-09T08:08:48.871Z,27.48
2023-07-09T08:11:21.697Z,27.52
2023-07-09T08:13:52.157Z,27.54
2023-07-09T08:16:22.699Z,27.24
2023-07-09T08:18:56.610Z,26.93
2023-07-09T08:21:27.255Z,26.91
2023-07-09T08:23:57.825Z,26.92
2023-07-09T08:26:30.252Z,26.80
2023-07-09T08:29:00.880Z,26.85
2023-07-09T08:31:31.354Z,26.96
2023-07-09T08:34:04.725Z,27.03
2023-07-09T08:36:35.148Z,26.97
2023-07-09T08:39:06.948Z,26.94
2023-07-09T08:41:46.481Z,26.88
2023-07-09T08:44:50.101Z,26.86
2023-07-09T08:47:28.895Z,26.87
2023-07-09T08:50:03.347Z,26.79
2023-07-09T08:52:38.948Z,26.79
2023-07-09T08:55:13.307Z,26.75
2023-07-09T08:57:49.860Z,26.68
2023-07-09T09:00:30.386Z,26.71
2023-07-09T09:03:04.534Z,26.55
2023-07-09T09:05:38.695Z,26.64
2023-07-09T09:08:22.362Z,26.56
2023-07-09T09:11:05.080Z,26.62
2023-07-09T09:13:40.732Z,26.63
2023-07-09T09:16:22.833Z,26.57
2023-07-09T09:19:22.886Z,26.35
2023-07-09T09:21:59.236Z,26.19
2023-07-09T09:24:36.253Z,26.12
2023-07-09T09:27:08.372Z,26.04
2023-07-09T09:29:41.922Z,25.94
2023-07-09T09:32:27.289Z,25.85
2023-07-09T09:34:59.563Z,25.76
2023-07-09T09:37:34.401Z,25.54
2023-07-09T09:42:40.839Z,25.40
2023-07-09T09:45:19.208Z,25.32
2023-07-09T09:47:51.535Z,25.17
2023-07-09T09:50:25.485Z,25.00
2023-07-09T09:52:58.241Z,24.98
2023-07-09T09:55:34.762Z,24.82
2023-07-09T09:58:06.751Z,24.61
2023-07-09T10:00:40.695Z,24.60
2023-07-09T10:03:12.829Z,24.42
2023-07-09T10:05:58.915Z,24.29
2023-07-09T10:08:43.627Z,24.07
2023-07-09T10:11:23.688Z,23.72
2023-07-09T10:13:59.227Z,23.80
2023-07-09T10:16:38.426Z,23.35
2023-07-09T10:19:19.857Z,23.48
2023-07-09T10:21:59.892Z,23.36
2023-07-09T10:24:49.810Z,23.27
2023-07-09T10:27:26.780Z,23.21
2023-07-09T10:30:23.201Z,23.08
2023-07-09T10:33:07.099Z,22.96
2023-07-09T10:35:46.493Z,22.71
2023-07-09T10:38:30.927Z,22.69
2023-07-09T10:41:20.691Z,22.03
2023-07-09T10:44:02.349Z,22.48
2023-07-09T10:46:38.536Z,22.21
2023-07-09T10:49:17.379Z,22.23
2023-07-09T10:51:53.526Z,22.30
2023-07-09T10:54:34.721Z,22.25
2023-07-09T10:57:13.439Z,22.18
2023-07-09T10:59:46.335Z,22.16
2023-07-09T11:02:25.691Z,22.09
2023-07-09T11:05:00.201Z,21.92
2023-07-09T11:07:36.899Z,21.91
2023-07-09T11:10:14.333Z,21.82
2023-07-09T11:12:49.752Z,21.77
2023-07-09T11:15:27.847Z,21.75
2023-07-09T11:18:03.445Z,21.65
2023-07-09T11:20:40.770Z,21.45
2023-07-09T11:23:22.618Z,21.57
2023-07-09T11:26:05.352Z,21.50
2023-07-09T11:28:40.977Z,21.41
2023-07-09T11:31:19.765Z,21.26
2023-07-09T11:33:53.447Z,21.36
2023-07-09T11:36:32.415Z,21.32
2023-07-09T11:39:04.486Z,21.26
2023-07-09T11:41:47.538Z,21.27
2023-07-09T11:44:22.083Z,21.02
2023-07-09T11:47:03.014Z,21.18
2023-07-09T11:49:45.349Z,21.14
2023-07-09T11:52:23.028Z,21.11
2023-07-09T11:54:54.497Z,21.04
2023-07-09T11:57:26.279Z,21.04
2023-07-09T12:00:03.144Z,20.96
2023-07-09T12:02:38.350Z,20.89
2023-07-09T12:05:11.814Z,20.85
2023-07-09T12:07:45.897Z,20.80
2023-07-09T12:10:24.554Z,20.74
2023-07-09T12:13:03.502Z,20.64
2023-07-09T12:15:34.915Z,20.64
2023-07-09T12:18:13.831Z,20.58
2023-07-09T12:20:49.619Z,20.32
2023-07-09T12:23:30.108Z,20.25
2023-07-09T12:26:05.475Z,20.35
2023-07-09T12:28:37.491Z,20.45
2023-07-09T12:31:09.212Z,20.38
2023-07-09T12:33:41.048Z,20.21
2023-07-09T12:36:14.586Z,20.15
2023-07-09T12:38:49.696Z,20.07
2023-07-09T12:41:26.994Z,20.00
2023-07-09T12:44:00.419Z,20.00
2023-07-09T12:46:33.174Z,19.91
2023-07-09T12:49:05.592Z,20.02
2023-07-09T12:51:37.270Z,20.05
2023-07-09T12:54:23.388Z,20.10
2023-07-09T12:56:57.089Z,19.79
2023-07-09T12:59:30.351Z,20.08
2023-07-09T13:02:07.031Z,20.12
2023-07-09T13:04:41.440Z,20.08
2023-07-09T13:07:30.939Z,20.09
2023-07-09T13:10:11.938Z,20.04
2023-07-09T13:12:45.541Z,20.01
2023-07-09T13:15:31.882Z,19.99
2023-07-09T13:18:07.440Z,19.92
2023-07-09T13:20:42.928Z,19.96
2023-07-09T13:23:16.621Z,19.97
2023-07-09T13:25:50.245Z,19.90
2023-07-09T13:28:24.335Z,20.00
2023-07-09T13:30:57.306Z,19.98
2023-07-09T13:33:29.084Z,20.01
2023-07-09T13:36:00.631Z,20.01
2023-07-09T13:38:32.197Z,20.00
2023-07-09T13:41:14.569Z,20.04
2023-07-09T13:43:48.518Z,20.06
2023-07-09T13:46:20.238Z,20.04
2023-07-09T13:48:51.799Z,20.07
2023-07-09T13:51:27.467Z,20.10
2023-07-09T13:54:01.522Z,20.05
2023-07-09T13:56:34.926Z,20.03
2023-07-09T13:59:06.743Z,19.99
2023-07-09T14:01:39.191Z,19.95
2023-07-09T14:04:13.796Z,19.90
2023-07-09T14:06:45.953Z,19.93
2023-07-09T14:09:18.398Z,19.91
2023-07-09T14:11:53.620Z,19.77
2023-07-09T14:14:28.242Z,19.81
2023-07-09T14:16:59.929Z,19.75
2023-07-09T14:19:32.559Z,19.81
2023-07-09T14:22:04.194Z,19.81
2023-07-09T14:24:35.831Z,19.78
2023-07-09T14:27:14.558Z,19.82
2023-07-09T14:29:46.301Z,19.81
2023-07-09T14:32:38.577Z,19.80
2023-07-09T14:35:18.772Z,19.80
2023-07-09T14:37:51.737Z,19.75
2023-07-09T14:40:25.100Z,19.80
2023-07-09T14:42:59.115Z,19.77
2023-07-09T14:45:32.501Z,19.74
2023-07-09T14:48:05.208Z,19.80
2023-07-09T14:50:37.316Z,19.79
2023-07-09T14:53:10.260Z,19.72
2023-07-09T14:55:42.144Z,19.62
2023-07-09T14:58:21.375Z,19.69
2023-07-09T15:00:52.561Z,19.72
2023-07-09T15:03:26.313Z,19.46
2023-07-09T15:05:58.452Z,19.68
2023-07-09T15:08:30.912Z,19.62
2023-07-09T15:11:02.795Z,19.61
2023-07-09T15:13:38.574Z,19.57
2023-07-09T15:16:10.064Z,19.54
2023-07-09T15:18:41.173Z,19.59
2023-07-09T15:21:15.706Z,19.64
2023-07-09T15:23:48.426Z,19.66
2023-07-09T15:26:20.704Z,19.71
2023-07-09T15:28:54.191Z,19.72
2023-07-09T15:31:25.895Z,19.71
2023-07-09T15:33:56.809Z,19.70
2023-07-09T15:36:27.462Z,19.71
2023-07-09T15:38:58.180Z,19.66
2023-07-09T15:41:28.846Z,19.54
2023-07-09T15:44:04.789Z,19.46
2023-07-09T15:46:36.381Z,19.40
2023-07-09T15:49:08.775Z,19.23
2023-07-09T15:51:47.131Z,19.50
2023-07-09T15:54:22.311Z,19.41
2023-07-09T15:56:55.490Z,19.53
2023-07-09T15:59:33.548Z,19.53
2023-07-09T16:02:06.546Z,19.57
2023-07-09T16:04:37.578Z,19.65
2023-07-09T16:07:08.654Z,19.60
2023-07-09T16:09:40.965Z,19.59
2023-07-09T16:12:18.167Z,19.52
2023-07-09T16:14:51.339Z,19.56
2023-07-09T16:17:24.595Z,19.44
2023-07-09T16:19:55.400Z,19.42
2023-07-09T16:22:26.193Z,19.29
2023-07-09T16:24:56.902Z,19.21
2023-07-09T16:27:27.918Z,19.12
2023-07-09T16:30:00.406Z,19.12
2023-07-09T16:32:31.162Z,18.95
2023-07-09T16:35:01.619Z,19.01
2023-07-09T16:37:32.222Z,19.00
2023-07-09T16:40:02.858Z,19.03
2023-07-09T16:42:36.875Z,19.08
2023-07-09T16:45:10.408Z,19.08
2023-07-09T16:47:43.619Z,19.02
2023-07-09T16:50:17.965Z,18.80
2023-07-09T16:52:49.504Z,19.06
2023-07-09T16:55:22.685Z,18.87
2023-07-09T16:57:57.213Z,18.96
2023-07-09T17:00:35.282Z,18.71
2023-07-09T17:03:08.320Z,18.86
2023-07-09T17:05:38.956Z,18.84
2023-07-09T17:08:10.377Z,18.84
2023-07-09T17:10:45.227Z,18.83
2023-07-09T17:13:22.591Z,18.75
2023-07-09T17:15:55.197Z,18.41
2023-07-09T17:18:27.601Z,18.61
2023-07-09T17:21:00.717Z,18.65
2023-07-09T17:23:32.655Z,18.37
2023-07-09T17:26:03.746Z,18.37
2023-07-09T17:28:37.803Z,18.65
2023-07-09T17:31:10.092Z,18.67
2023-07-09T17:33:40.632Z,18.66
2023-07-09T17:36:19.060Z,18.45
2023-07-09T17:38:50.374Z,18.65
2023-07-09T17:41:20.940Z,18.69
2023-07-09T17:43:51.674Z,18.65
2023-07-09T17:46:25.428Z,18.75
2023-07-09T17:48:56.114Z,18.75
2023-07-09T17:51:26.851Z,18.74
2023-07-09T17:53:57.454Z,18.73
2023-07-09T17:56:31.601Z,18.69
2023-07-09T17:59:02.154Z,18.58
2023-07-09T18:01:37.423Z,18.49
2023-07-09T18:04:29.633Z,18.65
2023-07-09T18:07:03.373Z,18.69
2023-07-09T18:09:37.474Z,18.70
2023-07-09T18:12:08.725Z,18.65
2023-07-09T18:14:44.648Z,18.54
2023-07-09T18:17:20.171Z,18.42
2023-07-09T18:19:50.964Z,18.57
2023-07-09T18:22:23.092Z,18.29
2023-07-09T18:24:54.945Z,18.52
2023-07-09T18:27:31.495Z,18.56
2023-07-09T18:30:02.185Z,18.62
2023-07-09T18:32:35.447Z,18.61
2023-07-09T18:35:21.837Z,18.54
2023-07-09T18:37:55.702Z,18.48
2023-07-09T18:40:28.467Z,18.37
2023-07-09T18:42:59.487Z,18.25
2023-07-09T18:45:32.155Z,18.32
2023-07-09T18:48:05.012Z,18.31
2023-07-09T18:50:36.403Z,18.32
2023-07-09T18:53:07.664Z,18.24
2023-07-09T18:55:38.723Z,18.32
2023-07-09T18:58:14.159Z,18.13
2023-07-09T19:00:44.746Z,18.23
2023-07-09T19:03:18.605Z,18.28
2023-07-09T19:05:50.092Z,18.34
2023-07-09T19:08:23.540Z,18.37
2023-07-09T19:10:54.275Z,18.41
2023-07-09T19:13:24.980Z,18.41
2023-07-09T19:15:58.819Z,18.42
2023-07-09T19:18:37.117Z,18.27
2023-07-09T19:21:08.837Z,18.26
2023-07-09T19:23:39.358Z,18.43
2023-07-09T19:26:13.115Z,18.18
2023-07-09T19:28:43.523Z,18.32
2023-07-09T19:31:14.258Z,18.33
2023-07-09T19:33:46.617Z,18.34
2023-07-09T19:36:24.724Z,18.36
2023-07-09T19:38:56.561Z,18.35
2023-07-09T19:41:28.648Z,18.14
2023-07-09T19:43:59.091Z,18.39
2023-07-09T19:46:29.993Z,18.46
2023-07-09T19:49:02.173Z,18.50
2023-07-09T19:51:34.900Z,18.56
2023-07-09T19:54:05.390Z,18.61
2023-07-09T19:56:35.801Z,18.85
2023-07-09T19:59:06.175Z,19.05
2023-07-09T20:01:36.797Z,19.22
2023-07-09T20:04:09.426Z,19.38
2023-07-09T20:06:40.029Z,19.64
2023-07-09T20:09:16.238Z,19.74
2023-07-09T20:11:50.112Z,20.21
2023-07-09T20:14:22.890Z,20.41
2023-07-09T20:16:53.302Z,20.32
2023-07-09T20:19:26.859Z,20.19
2023-07-09T20:21:57.257Z,19.81
2023-07-09T20:24:27.828Z,19.88
2023-07-09T20:26:58.884Z,19.77
2023-07-09T20:29:29.545Z,19.70
2023-07-09T20:32:00.045Z,19.62
2023-07-09T20:34:32.162Z,19.52
2023-07-09T20:37:02.637Z,19.46
2023-07-09T20:39:33.506Z,19.42
2023-07-09T20:42:04.004Z,19.34
2023-07-09T20:44:37.936Z,19.44
2023-07-09T20:47:18.910Z,19.56
2023-07-09T20:49:51.982Z,19.75
2023-07-09T20:52:26.166Z,20.06
2023-07-09T20:54:56.659Z,20.35
2023-07-09T20:57:27.725Z,20.49
2023-07-09T20:59:58.157Z,20.46
2023-07-09T21:02:30.091Z,20.17
2023-07-09T21:05:02.244Z,20.20
2023-07-09T21:07:32.668Z,20.08
2023-07-09T21:10:03.165Z,20.08
2023-07-09T21:12:33.520Z,20.09
2023-07-09T21:15:04.025Z,20.11
2023-07-09T21:17:34.634Z,20.09
2023-07-09T21:20:16.006Z,20.06
2023-07-09T21:22:46.414Z,20.07
2023-07-09T21:25:22.756Z,20.13
2023-07-09T21:27:54.337Z,20.17
2023-07-09T21:30:25.859Z,20.16
2023-07-09T21:32:56.480Z,20.32
2023-07-09T21:35:30.462Z,20.41
2023-07-09T21:38:02.874Z,20.65
2023-07-09T21:40:34.877Z,20.99
2023-07-09T21:43:08.346Z,21.00
2023-07-09T21:45:42.362Z,21.10
2023-07-09T21:48:16.229Z,21.23
2023-07-09T21:50:49.128Z,21.22
2023-07-09T21:53:23.455Z,21.58
2023-07-09T21:56:01.550Z,21.86
2023-07-09T21:58:32.014Z,22.05
2023-07-09T22:01:02.461Z,22.18
2023-07-09T22:03:33.130Z,22.24
2023-07-09T22:06:05.546Z,22.35
2023-07-09T22:08:36.144Z,22.40
2023-07-09T22:11:23.591Z,22.53
2023-07-09T22:13:57.274Z,22.70
2023-07-09T22:16:29.274Z,23.01
2023-07-09T22:18:59.686Z,23.29
2023-07-09T22:21:40.409Z,23.47
2023-07-09T22:24:14.982Z,23.35
2023-07-09T22:26:45.704Z,23.78
2023-07-09T22:29:16.201Z,24.00
2023-07-09T22:31:47.489Z,23.96
2023-07-09T22:34:23.488Z,23.60
2023-07-09T22:36:55.463Z,23.36
2023-07-09T22:39:26.547Z,23.50
2023-07-09T22:41:58.495Z,23.75
2023-07-09T22:44:29.546Z,24.10
2023-07-09T22:47:01.806Z,24.32
2023-07-09T22:49:32.462Z,24.47
2023-07-09T22:52:04.851Z,24.36
2023-07-09T22:54:35.248Z,24.30
2023-07-09T22:57:05.895Z,24.44
2023-07-09T22:59:36.364Z,24.56
2023-07-09T23:02:08.676Z,24.70
2023-07-09T23:04:39.192Z,24.69
2023-07-09T23:07:15.677Z,24.81
2023-07-09T23:09:46.007Z,25.04
2023-07-09T23:12:16.701Z,25.21
2023-07-09T23:14:47.140Z,25.48
2023-07-09T23:17:17.619Z,25.55
2023-07-09T23:19:48.855Z,25.73
2023-07-09T23:22:20.909Z,25.95
2023-07-09T23:24:51.448Z,25.97
2023-07-09T23:27:22.786Z,25.95
2023-07-09T23:29:53.287Z,25.76
2023-07-09T23:32:25.061Z,25.85
2023-07-09T23:34:55.541Z,26.12
2023-07-09T23:37:27.625Z,26.04
2023-07-09T23:39:57.978Z,26.14
2023-07-09T23:42:28.447Z,25.94
2023-07-09T23:44:59.083Z,25.85
2023-07-09T23:47:29.515Z,25.76
2023-07-09T23:49:59.933Z,25.79
2023-07-09T23:52:33.144Z,26.05
2023-07-09T23:55:03.622Z,26.27
2023-07-09T23:57:34.331Z,26.16
